createdAt,value
2019-04-24T00:00:16.621Z,99.90
2019-04-24T00:08:00.175Z,99.90
2019-04-24T00:10:28.423Z,99.90
2019-04-24T00:15:49.173Z,99.90
2019-04-24T00:20:55.206Z,99.90
2019-04-24T00:23:26.880Z,99.90
2019-04-24T00:26:05.473Z,99.90
2019-04-24T00:28:28.155Z,99.90
2019-04-24T00:31:06.047Z,99.90
2019-04-24T00:39:00.584Z,99.90
2019-04-24T00:41:39.302Z,99.90
2019-04-24T00:46:37.465Z,99.90
2019-04-24T00:51:36.006Z,99.90
2019-04-24T00:54:15.109Z,99.40
2019-04-24T00:59:19.977Z,99.90
2019-04-24T01:02:10.263Z,99.90
2019-04-24T01:05:07.369Z,99.90
2019-04-24T01:07:36.751Z,99.90
2019-04-24T01:10:26.390Z,99.90
2019-04-24T01:17:48.691Z,99.90
2019-04-24T01:23:03.190Z,99.90
2019-04-24T01:35:59.903Z,96.10
2019-04-24T01:38:32.894Z,95.00
2019-04-24T01:41:14.043Z,95.10
2019-04-24T01:43:42.254Z,95.50
2019-04-24T01:46:16.530Z,95.50
2019-04-24T01:48:51.892Z,96.10
2019-04-24T01:58:53.821Z,94.00
2019-04-24T02:03:56.990Z,95.00
2019-04-24T02:06:20.686Z,94.90
2019-04-24T02:09:06.800Z,94.80
2019-04-24T02:11:53.396Z,94.50
2019-04-24T02:17:05.175Z,94.70
2019-04-24T02:27:02.777Z,93.50
2019-04-24T02:29:30.845Z,94.60
2019-04-24T02:35:00.594Z,94.10
2019-04-24T02:42:49.370Z,94.50
2019-04-24T02:52:52.975Z,95.50
2019-04-24T02:57:47.263Z,95.90
2019-04-24T03:01:20.218Z,95.50
2019-04-24T03:05:50.888Z,94.80
2019-04-24T03:10:37.917Z,94.00
2019-04-24T03:13:32.524Z,93.00
2019-04-24T03:16:12.870Z,94.20
2019-04-24T03:18:40.164Z,95.40
2019-04-24T03:21:14.070Z,92.60
2019-04-24T03:23:42.716Z,93.40
2019-04-24T03:26:54.474Z,94.50
2019-04-24T03:29:02.797Z,93.00
2019-04-24T03:34:19.065Z,92.80
2019-04-24T03:39:11.400Z,92.10
2019-04-24T03:42:13.508Z,92.00
2019-04-24T03:44:23.120Z,92.40
2019-04-24T03:46:34.378Z,91.60
2019-04-24T03:56:51.128Z,93.60
2019-04-24T03:59:38.331Z,93.10
2019-04-24T04:02:57.229Z,92.40
2019-04-24T04:04:59.513Z,92.30
2019-04-24T04:07:29.139Z,91.40
2019-04-24T04:18:08.039Z,91.80
2019-04-24T04:20:34.494Z,92.20
2019-04-24T04:23:05.135Z,91.30
2019-04-24T04:25:55.381Z,90.20
2019-04-24T04:39:11.904Z,87.30
2019-04-24T04:42:37.152Z,87.30
2019-04-24T04:45:05.268Z,86.30
2019-04-24T04:47:35.119Z,86.00
2019-04-24T04:50:39.673Z,83.40
2019-04-24T05:04:37.195Z,76.10
2019-04-24T05:07:21.611Z,76.50
2019-04-24T05:11:58.869Z,77.20
2019-04-24T05:14:55.313Z,76.70
2019-04-24T05:19:29.300Z,77.60
2019-04-24T05:24:36.285Z,71.60
2019-04-24T05:29:48.522Z,68.10
2019-04-24T05:38:04.320Z,58.10
2019-04-24T05:40:48.086Z,57.80
2019-04-24T05:43:32.681Z,56.50
2019-04-24T05:48:28.085Z,51.50
2019-04-24T05:51:18.016Z,56.30
2019-04-24T05:59:33.185Z,58.30
2019-04-24T06:02:22.470Z,63.70
2019-04-24T06:04:46.369Z,64.80
2019-04-24T06:07:37.458Z,67.40
2019-04-24T06:10:23.832Z,68.90
2019-04-24T06:18:38.806Z,60.20
2019-04-24T06:21:04.172Z,62.70
2019-04-24T06:24:03.244Z,62.40
2019-04-24T06:29:18.895Z,64.60
2019-04-24T06:31:51.784Z,55.10
2019-04-24T06:37:03.829Z,59.80
2019-04-24T06:42:32.925Z,59.20
2019-04-24T06:50:12.623Z,60.10
2019-04-24T06:52:50.217Z,60.50
2019-04-24T06:57:32.478Z,58.20
2019-04-24T07:00:29.584Z,55.50
2019-04-24T07:02:57.020Z,53.00
2019-04-24T07:06:14.941Z,52.00
2019-04-24T07:08:36.917Z,47.00
2019-04-24T07:11:34.536Z,45.10
2019-04-24T07:14:41.952Z,41.80
2019-04-24T07:22:19.171Z,50.60
2019-04-24T07:30:17.777Z,48.60
2019-04-24T07:33:08.490Z,44.70
2019-04-24T07:36:04.651Z,41.20
2019-04-24T07:38:29.993Z,49.10
2019-04-24T07:41:06.220Z,52.00
2019-04-24T07:43:55.024Z,48.00
2019-04-24T07:46:10.274Z,47.50
2019-04-24T07:48:51.290Z,46.10
2019-04-24T07:51:20.633Z,46.60
2019-04-24T07:57:01.162Z,49.00
2019-04-24T07:59:59.271Z,49.80
2019-04-24T08:02:08.843Z,50.60
2019-04-24T08:04:44.181Z,52.10
2019-04-24T08:07:12.312Z,49.80
2019-04-24T08:10:17.395Z,47.90
2019-04-24T08:12:42.291Z,49.40
2019-04-24T08:15:22.623Z,52.80
2019-04-24T08:20:34.269Z,52.00
2019-04-24T08:22:56.532Z,51.90
2019-04-24T08:25:28.626Z,51.90
2019-04-24T08:27:55.478Z,52.80
2019-04-24T08:30:35.778Z,51.60
2019-04-24T08:33:07.305Z,48.80
2019-04-24T08:35:52.680Z,48.60
2019-04-24T08:38:19.902Z,49.10
2019-04-24T08:43:48.638Z,47.90
2019-04-24T08:46:42.768Z,47.20
2019-04-24T08:49:11.893Z,51.00
2019-04-24T08:51:53.415Z,47.80
2019-04-24T08:57:14.735Z,48.70
2019-04-24T09:02:18.512Z,50.30
2019-04-24T09:07:37.115Z,48.30
2019-04-24T09:10:27.941Z,51.30
2019-04-24T09:13:10.452Z,54.20
2019-04-24T09:15:37.091Z,52.70
2019-04-24T09:18:06.144Z,53.90
2019-04-24T09:20:33.842Z,54.90
2019-04-24T09:39:15.722Z,58.30
2019-04-24T09:42:05.075Z,56.20
2019-04-24T09:44:09.850Z,57.70
2019-04-24T09:49:30.370Z,56.10
2019-04-24T09:54:55.025Z,54.00
2019-04-24T09:57:29.147Z,54.30
2019-04-24T09:59:46.663Z,51.10
2019-04-24T10:05:45.453Z,47.60
2019-04-24T10:10:46.534Z,49.50
2019-04-24T10:13:19.587Z,49.20
2019-04-24T10:16:04.989Z,49.30
2019-04-24T10:18:43.578Z,49.50
2019-04-24T10:21:00.267Z,50.70
2019-04-24T10:32:20.406Z,48.40
2019-04-24T10:35:10.770Z,49.30
2019-04-24T10:41:02.389Z,46.90
2019-04-24T10:44:03.424Z,47.00
2019-04-24T10:47:31.167Z,47.30
2019-04-24T10:49:57.794Z,47.10
2019-04-24T10:52:38.999Z,47.80
2019-04-24T10:54:59.447Z,46.40
2019-04-24T10:57:42.190Z,46.00
2019-04-24T11:00:09.754Z,45.50
2019-04-24T11:02:55.787Z,48.50
2019-04-24T11:05:52.609Z,49.10
2019-04-24T11:11:45.614Z,47.10
2019-04-24T11:14:52.326Z,48.50
2019-04-24T11:20:15.780Z,47.00
2019-04-24T11:23:16.951Z,48.20
2019-04-24T11:26:20.547Z,47.40
2019-04-24T11:28:50.687Z,48.50
2019-04-24T11:31:32.078Z,46.30
2019-04-24T11:40:12.606Z,42.60
2019-04-24T11:42:23.299Z,43.70
2019-04-24T11:45:02.260Z,41.60
2019-04-24T11:48:07.217Z,43.00
2019-04-24T11:51:04.521Z,43.00
2019-04-24T11:58:29.079Z,41.40
2019-04-24T12:01:10.375Z,41.30
2019-04-24T12:04:21.982Z,42.90
2019-04-24T12:09:32.402Z,39.80
2019-04-24T12:14:40.173Z,40.60
2019-04-24T12:17:06.330Z,40.50
2019-04-24T12:20:09.999Z,40.50
2019-04-24T12:25:10.135Z,39.20
2019-04-24T12:28:00.214Z,37.80
2019-04-24T12:30:30.587Z,37.70
2019-04-24T12:32:59.511Z,38.30
2019-04-24T12:35:34.532Z,40.20
2019-04-24T12:41:05.654Z,38.70
2019-04-24T12:44:18.452Z,39.20
2019-04-24T12:46:23.025Z,39.60
2019-04-24T12:48:55.266Z,40.30
2019-04-24T12:51:24.805Z,39.70
2019-04-24T12:54:06.415Z,38.70
2019-04-24T13:02:26.198Z,37.20
2019-04-24T13:05:00.384Z,35.50
2019-04-24T13:07:45.149Z,36.10
2019-04-24T13:10:14.284Z,37.90
2019-04-24T13:13:09.869Z,36.70
2019-04-24T13:16:05.441Z,35.30
2019-04-24T13:18:49.444Z,38.80
2019-04-24T13:20:47.040Z,39.30
2019-04-24T13:23:34.291Z,39.70
2019-04-24T13:26:44.699Z,40.70
2019-04-24T13:29:28.757Z,40.50
2019-04-24T13:32:09.871Z,39.40
2019-04-24T13:35:01.834Z,38.80
2019-04-24T13:37:35.891Z,39.10
2019-04-24T13:39:58.382Z,39.60
2019-04-24T13:42:33.599Z,39.20
2019-04-24T13:47:38.707Z,38.00
2019-04-24T13:50:13.147Z,39.60
2019-04-24T13:57:55.089Z,38.10
2019-04-24T14:00:40.128Z,38.60
2019-04-24T14:03:15.768Z,39.00
2019-04-24T14:05:25.180Z,38.90
2019-04-24T14:10:46.234Z,37.10
2019-04-24T14:13:00.294Z,37.40
2019-04-24T14:15:33.666Z,37.20
2019-04-24T14:18:15.349Z,36.80
2019-04-24T14:20:38.224Z,37.20
2019-04-24T14:23:27.464Z,37.10
2019-04-24T14:25:56.083Z,38.40
2019-04-24T14:33:29.549Z,39.00
2019-04-24T14:36:02.449Z,38.40
2019-04-24T14:41:00.232Z,38.40
2019-04-24T14:48:42.721Z,38.20
2019-04-24T14:51:08.496Z,38.50
2019-04-24T14:53:46.458Z,36.90
2019-04-24T14:56:13.463Z,36.30
2019-04-24T14:59:15.978Z,36.00
2019-04-24T15:01:18.090Z,37.10
2019-04-24T15:03:48.734Z,35.50
2019-04-24T15:06:22.357Z,34.20
2019-04-24T15:08:54.276Z,35.20
2019-04-24T15:11:20.242Z,35.50
2019-04-24T15:13:55.371Z,36.20
2019-04-24T15:22:10.798Z,36.00
2019-04-24T15:29:39.712Z,36.20
2019-04-24T15:34:50.079Z,36.20
2019-04-24T15:37:18.423Z,35.50
2019-04-24T15:40:17.198Z,36.00
2019-04-24T15:42:14.681Z,36.70
2019-04-24T15:44:58.339Z,37.50
2019-04-24T15:50:00.221Z,55.90
2019-04-24T15:51:55.554Z,39.10
2019-04-24T15:54:25.241Z,38.70
2019-04-24T15:56:55.033Z,38.40
2019-04-24T15:59:47.975Z,38.00
2019-04-24T16:02:27.269Z,38.00
2019-04-24T16:04:53.355Z,38.70
2019-04-24T16:07:21.351Z,37.70
2019-04-24T16:09:54.596Z,39.20
2019-04-24T16:12:26.478Z,39.30
2019-04-24T16:15:23.985Z,39.80
2019-04-24T16:17:59.334Z,39.10
2019-04-24T16:20:31.917Z,39.40
2019-04-24T16:22:59.633Z,39.00
2019-04-24T16:25:36.294Z,39.40
2019-04-24T16:28:18.173Z,39.40
2019-04-24T16:33:21.032Z,40.40
2019-04-24T16:35:51.719Z,39.70
2019-04-24T16:38:20.599Z,39.90
2019-04-24T16:43:42.254Z,41.20
2019-04-24T16:48:58.568Z,41.10
2019-04-24T16:51:35.032Z,41.30
2019-04-24T16:54:05.695Z,41.90
2019-04-24T16:56:32.627Z,42.30
2019-04-24T16:59:00.021Z,42.20
2019-04-24T17:01:46.724Z,42.20
2019-04-24T17:04:23.247Z,42.20
2019-04-24T17:09:05.550Z,43.60
2019-04-24T17:11:36.233Z,43.80
2019-04-24T17:17:31.554Z,43.70
2019-04-24T17:24:54.032Z,47.10
2019-04-24T17:30:02.769Z,48.90
2019-04-24T17:32:29.281Z,49.40
2019-04-24T17:37:01.834Z,50.80
2019-04-24T17:39:37.895Z,51.50
2019-04-24T17:42:17.358Z,52.10
2019-04-24T17:45:05.205Z,52.00
2019-04-24T17:47:46.578Z,52.00
2019-04-24T17:50:18.247Z,52.40
2019-04-24T17:55:15.041Z,52.80
2019-04-24T17:59:52.002Z,53.70
2019-04-24T18:02:23.511Z,54.50
2019-04-24T18:04:55.152Z,54.40
2019-04-24T18:07:27.256Z,55.00
2019-04-24T18:09:57.078Z,55.20
2019-04-24T18:12:26.906Z,55.10
2019-04-24T18:14:56.796Z,55.60
2019-04-24T18:17:26.705Z,55.50
2019-04-24T18:19:56.546Z,56.50
2019-04-24T18:22:36.415Z,57.20
2019-04-24T18:25:32.553Z,57.50
2019-04-24T18:28:03.433Z,58.30
2019-04-24T18:30:33.934Z,58.80
2019-04-24T18:33:05.364Z,59.10
2019-04-24T18:35:39.207Z,59.50
2019-04-24T18:38:14.238Z,60.80
2019-04-24T18:40:42.011Z,61.70
2019-04-24T18:43:13.136Z,62.60
2019-04-24T18:45:44.279Z,63.00
2019-04-24T18:48:14.897Z,62.90
2019-04-24T18:50:44.681Z,64.50
2019-04-24T18:53:15.208Z,63.50
2019-04-24T18:55:45.097Z,64.40
2019-04-24T18:58:16.214Z,64.90
2019-04-24T19:00:46.278Z,65.00
2019-04-24T19:03:16.858Z,65.00
2019-04-24T19:05:47.258Z,65.10
2019-04-24T19:08:17.605Z,65.60
2019-04-24T19:10:47.686Z,66.40
2019-04-24T19:13:17.724Z,66.30
2019-04-24T19:15:47.488Z,66.30
2019-04-24T19:18:17.375Z,67.60
2019-04-24T19:20:47.102Z,67.10
2019-04-24T19:23:16.821Z,67.50
2019-04-24T19:25:46.490Z,68.20
2019-04-24T19:28:17.293Z,68.40
2019-04-24T19:30:47.575Z,68.00
2019-04-24T19:33:19.582Z,68.40
2019-04-24T19:35:48.626Z,68.40
2019-04-24T19:38:19.224Z,67.40
2019-04-24T19:40:49.640Z,68.20
2019-04-24T19:43:19.349Z,68.70
2019-04-24T19:45:49.245Z,68.70
2019-04-24T19:48:19.483Z,68.20
2019-04-24T19:50:51.729Z,67.70
2019-04-24T19:53:25.031Z,67.40
2019-04-24T19:55:52.946Z,67.30
2019-04-24T19:58:23.133Z,67.40
2019-04-24T20:00:53.056Z,67.60
2019-04-24T20:03:22.887Z,67.60
2019-04-24T20:05:53.702Z,67.30
2019-04-24T20:08:26.461Z,68.50
2019-04-24T20:11:17.070Z,68.30
2019-04-24T20:13:46.835Z,68.00
2019-04-24T20:16:16.621Z,67.70
2019-04-24T20:18:46.504Z,68.00
2019-04-24T20:21:17.085Z,68.00
2019-04-24T20:23:46.970Z,67.70
2019-04-24T20:26:17.815Z,67.80
2019-04-24T20:28:47.950Z,68.50
2019-04-24T20:31:17.970Z,68.60
2019-04-24T20:33:47.892Z,68.00
2019-04-24T20:36:18.544Z,68.10
2019-04-24T20:38:48.378Z,67.00
2019-04-24T20:41:18.076Z,67.40
2019-04-24T20:43:47.831Z,67.90
2019-04-24T20:46:17.622Z,67.40
2019-04-24T20:48:47.443Z,67.60
2019-04-24T20:51:17.127Z,67.80
2019-04-24T20:53:47.176Z,67.30
2019-04-24T20:56:17.441Z,67.70
2019-04-24T20:58:47.308Z,66.40
2019-04-24T21:01:18.284Z,66.60
2019-04-24T21:03:48.003Z,65.80
2019-04-24T21:06:43.158Z,66.50
2019-04-24T21:09:26.192Z,66.90
2019-04-24T21:11:55.632Z,66.70
2019-04-24T21:14:25.343Z,67.10
2019-04-24T21:16:55.118Z,66.60
2019-04-24T21:19:25.662Z,66.80
2019-04-24T21:21:55.641Z,66.50
2019-04-24T21:24:27.741Z,66.50
2019-04-24T21:26:56.848Z,66.80
2019-04-24T21:29:27.225Z,66.40
2019-04-24T21:31:57.154Z,66.60
2019-04-24T21:34:27.326Z,66.40
2019-04-24T21:36:57.036Z,67.60
2019-04-24T21:39:29.152Z,67.20
2019-04-24T21:41:58.139Z,67.40
2019-04-24T21:44:28.031Z,68.10
2019-04-24T21:46:57.712Z,68.80
2019-04-24T21:49:27.475Z,69.20
2019-04-24T21:51:58.113Z,69.40
2019-04-24T21:54:28.641Z,69.40
2019-04-24T21:56:58.612Z,69.40
2019-04-24T21:59:29.106Z,69.70
2019-04-24T22:02:35.774Z,70.00
2019-04-24T22:05:26.003Z,70.50
2019-04-24T22:07:55.719Z,71.20
2019-04-24T22:10:26.227Z,71.80
2019-04-24T22:12:56.151Z,71.50
2019-04-24T22:15:26.726Z,72.80
2019-04-24T22:17:56.622Z,72.90
2019-04-24T22:20:38.397Z,72.90
2019-04-24T22:23:14.863Z,73.00
2019-04-24T22:25:52.893Z,73.60
2019-04-24T22:28:22.954Z,73.40
2019-04-24T22:31:03.167Z,74.70
2019-04-24T22:33:36.211Z,74.70
2019-04-24T22:36:06.053Z,74.70
2019-04-24T22:38:39.419Z,75.70
2019-04-24T22:41:09.371Z,76.00
2019-04-24T22:43:39.057Z,76.10
2019-04-24T22:46:08.757Z,76.60
2019-04-24T22:48:38.838Z,78.20
2019-04-24T22:51:08.702Z,78.00
2019-04-24T22:53:39.054Z,77.80
2019-04-24T22:56:09.162Z,78.00
2019-04-24T22:58:38.917Z,78.10
2019-04-24T23:01:09.012Z,78.00
2019-04-24T23:03:39.357Z,79.20
2019-04-24T23:06:09.213Z,78.60
2019-04-24T23:08:38.890Z,78.70
2019-04-24T23:11:09.037Z,79.40
2019-04-24T23:13:39.854Z,79.20
2019-04-24T23:16:12.390Z,79.40
2019-04-24T23:18:42.789Z,80.10
2019-04-24T23:21:30.586Z,79.70
2019-04-24T23:24:11.584Z,79.40
2019-04-24T23:27:03.026Z,80.00
2019-04-24T23:29:54.397Z,79.80
2019-04-24T23:32:31.714Z,78.70
2019-04-24T23:35:01.433Z,79.10
2019-04-24T23:37:31.161Z,80.30
2019-04-24T23:40:00.878Z,79.70
2019-04-24T23:42:34.021Z,79.20
2019-04-24T23:45:04.720Z,79.70
2019-04-24T23:47:34.769Z,79.90
2019-04-24T23:50:05.788Z,79.70
2019-04-24T23:52:36.065Z,80.30
2019-04-24T23:55:07.521Z,81.30
2019-04-24T23:57:37.803Z,81.80
